Time;durP1;ratioP1;P1;durP2;ratioP2;P2;SDS_P1;SDS_P2;PMS_P1;PMS_P2;Temp;Humidity;BMP_temperature;BMP_pressure;BME280_temperature;BME280_humidity;BME280_pressure;Samples;Min_cycle;Max_cycle;Signal;HPM_P1;HPM_P2
2021/09/28 00:01:17;;;;;;;;;;;;;;;;;;5036011;28;19919;-81
2021/09/28 00:03:43;;;;;;;;;;;;;;;;;;5052058;28;20382;-81
2021/09/28 00:06:08;;;;;;;;;;;;;;;;;;5052547;28;19913;-81
2021/09/28 00:08:33;;;;;;;;;;;;;;;;;;5052212;28;19912;-81
2021/09/28 00:10:59;;;;;;;;;;;;;;;;;;5035431;28;19996;-81
2021/09/28 00:13:24;;;;;;;;;;;;;;;;;;5018476;28;19999;-81
2021/09/28 00:15:49;;;;;;;;;;;;;;;;;;5035644;28;19955;-80
2021/09/28 00:18:15;;;;;;;;;;;;;;;;;;5018886;28;20004;-82
2021/09/28 00:20:40;;;;;;;;;;;;;;;;;;5018611;28;19921;-81
2021/09/28 00:23:06;;;;;;;;;;;;;;;;;;5035014;28;19916;-81
2021/09/28 00:25:31;;;;;;;;;;;;;;;;;;5071580;28;19923;-81
2021/09/28 00:27:57;;;;;;;;;;;;;;;;;;5055503;28;20007;-81
2021/09/28 00:30:22;;;;;;;;;;;;;;;;;;5055306;28;19947;-81
2021/09/28 00:32:47;;;;;;;;;;;;;;;;;;5072000;28;20038;-80
2021/09/28 00:35:13;;;;;;;;;;;;;;;;;;5054805;28;19973;-81
2021/09/28 00:37:38;;;;;;;;;;;;;;;;;;5054074;28;19955;-80
2021/09/28 00:40:03;;;;;;;;;;;;;;;;;;5038082;28;20038;-81
2021/09/28 00:42:29;;;;;;;;;;;;;;;;;;5055103;28;19913;-81
2021/09/28 00:44:54;;;;;;;;;;;;;;;;;;5054862;28;20472;-80
2021/09/28 00:47:19;;;;;;;;;;;;;;;;;;5055030;28;19948;-81
2021/09/28 00:49:45;;;;;;;;;;;;;;;;;;5037637;28;20004;-80
2021/09/28 00:52:11;;;;;;;;;;;;;;;;;;5055009;28;19912;-80
2021/09/28 00:54:37;;;;;;;;;;;;;;;;;;5051237;28;19917;-80
2021/09/28 00:57:06;;;;;;;;;;;;;;;;;;5034209;28;20363;-80
2021/09/28 00:59:33;;;;;;;;;;;;;;;;;;5034758;28;19952;-81
2021/09/28 01:01:58;;;;;;;;;;;;;;;;;;5051749;28;20009;-81
2021/09/28 01:04:23;;;;;;;;;;;;;;;;;;5051082;28;20005;-80
2021/09/28 01:06:49;;;;;;;;;;;;;;;;;;5051501;28;20007;-81
2021/09/28 01:09:14;;;;;;;;;;;;;;;;;;5034036;28;19967;-81
2021/09/28 01:11:39;;;;;;;;;;;;;;;;;;5034511;28;19917;-80
2021/09/28 01:14:05;;;;;;;;;;;;;;;;;;5034680;28;20434;-80
2021/09/28 01:16:31;;;;;;;;;;;;;;;;;;5034559;28;19936;-80
2021/09/28 01:18:56;;;;;;;;;;;;;;;;;;5050883;28;19924;-81
2021/09/28 01:21:22;;;;;;;;;;;;;;;;;;5053097;28;19913;-81
2021/09/28 01:23:47;;;;;;;;;;;;;;;;;;5054420;28;19936;-81
2021/09/28 01:26:13;;;;;;;;;;;;;;;;;;5053587;28;19924;-81
2021/09/28 01:28:39;;;;;;;;;;;;;;;;;;5037870;28;19917;-80
2021/09/28 01:31:05;;;;;;;;;;;;;;;;;;5052542;28;19936;-81
2021/09/28 01:33:30;;;;;;;;;;;;;;;;;;5052767;28;19938;-80
2021/09/28 01:35:56;;;;;;;;;;;;;;;;;;5068868;28;19923;-80
2021/09/28 01:38:21;;;;;;;;;;;;;;;;;;5062532;28;19917;-80
2021/09/28 01:40:46;;;;;;;;;;;;;;;;;;5070783;28;19924;-80
2021/09/28 01:43:12;;;;;;;;;;;;;;;;;;5043983;28;20007;-80
2021/09/28 01:45:38;;;;;;;;;;;;;;;;;;5070538;28;20459;-80
2021/09/28 01:48:04;;;;;;;;;;;;;;;;;;5049321;28;20012;-80
2021/09/28 01:50:32;;;;;;;;;;;;;;;;;;5071196;28;20007;-80
2021/09/28 01:52:58;;;;;;;;;;;;;;;;;;5052777;28;19970;-81
2021/09/28 01:55:23;;;;;;;;;;;;;;;;;;5062830;28;19916;-80
2021/09/28 01:57:55;;;;;;;;;;;;;;;;;;5070453;28;19970;-80
2021/09/28 02:00:21;;;;;;;;;;;;;;;;;;5071972;28;20255;-80
2021/09/28 02:02:46;;;;;;;;;;;;;;;;;;5070160;28;19923;-80
2021/09/28 02:05:11;;;;;;;;;;;;;;;;;;5070672;28;19919;-80
2021/09/28 02:07:37;;;;;;;;;;;;;;;;;;5070162;28;19952;-80
2021/09/28 02:10:02;;;;;;;;;;;;;;;;;;5072403;28;20309;-80
2021/09/28 02:12:28;;;;;;;;;;;;;;;;;;5074361;28;19916;-81
2021/09/28 02:14:53;;;;;;;;;;;;;;;;;;5074286;28;20281;-80
2021/09/28 02:17:18;;;;;;;;;;;;;;;;;;5073354;28;20400;-80
2021/09/28 02:19:44;;;;;;;;;;;;;;;;;;5090761;28;20373;-81
2021/09/28 02:22:09;;;;;;;;;;;;;;;;;;5061777;28;20054;-81
2021/09/28 02:24:35;;;;;;;;;;;;;;;;;;5066778;28;19913;-80
2021/09/28 02:27:00;;;;;;;;;;;;;;;;;;5069751;28;19952;-80
2021/09/28 02:29:25;;;;;;;;;;;;;;;;;;5053519;28;19962;-80
2021/09/28 02:31:51;;;;;;;;;;;;;;;;;;5053717;28;19913;-80
2021/09/28 02:34:16;;;;;;;;;;;;;;;;;;5053581;28;19962;-80
2021/09/28 02:36:41;;;;;;;;;;;;;;;;;;5038743;28;19913;-80
2021/09/28 02:39:11;;;;;;;;;;;;;;;;;;5056609;28;19923;-80
2021/09/28 02:41:36;;;;;;;;;;;;;;;;;;5040862;28;19919;-81
2021/09/28 02:44:02;;;;;;;;;;;;;;;;;;5057209;28;19924;-81
2021/09/28 02:46:29;;;;;;;;;;;;;;;;;;5057074;28;19994;-80
2021/09/28 02:48:54;;;;;;;;;;;;;;;;;;5057282;28;19912;-80
2021/09/28 02:51:20;;;;;;;;;;;;;;;;;;5040457;28;20282;-80
2021/09/28 02:53:45;;;;;;;;;;;;;;;;;;5056645;28;20030;-80
2021/09/28 02:56:10;;;;;;;;;;;;;;;;;;5040158;28;19995;-80
2021/09/28 02:58:36;;;;;;;;;;;;;;;;;;5073711;28;19920;-80
2021/09/28 03:01:01;;;;;;;;;;;;;;;;;;5073191;28;20393;-80
2021/09/28 03:03:27;;;;;;;;;;;;;;;;;;5073489;28;19912;-80
2021/09/28 03:05:52;;;;;;;;;;;;;;;;;;5073543;28;20363;-81
2021/09/28 03:08:17;;;;;;;;;;;;;;;;;;5073772;28;19962;-80
2021/09/28 03:10:43;;;;;;;;;;;;;;;;;;5076338;28;19916;-80
2021/09/28 03:13:09;;;;;;;;;;;;;;;;;;5060287;28;19912;-80
2021/09/28 03:15:35;;;;;;;;;;;;;;;;;;5093604;28;19912;-80
2021/09/28 03:18:00;;;;;;;;;;;;;;;;;;5076487;28;19938;-80
2021/09/28 03:20:25;;;;;;;;;;;;;;;;;;5065723;28;19963;-81
2021/09/28 03:22:50;;;;;;;;;;;;;;;;;;5047365;28;19913;-80
2021/09/28 03:25:16;;;;;;;;;;;;;;;;;;5053622;28;19927;-80
2021/09/28 03:27:41;;;;;;;;;;;;;;;;;;5039746;28;19930;-80
2021/09/28 03:30:07;;;;;;;;;;;;;;;;;;5039427;28;19913;-80
2021/09/28 03:32:32;;;;;;;;;;;;;;;;;;5056341;28;19916;-80
2021/09/28 03:34:58;;;;;;;;;;;;;;;;;;5052969;28;19924;-81
2021/09/28 03:37:23;;;;;;;;;;;;;;;;;;5052354;28;19913;-81
2021/09/28 03:39:48;;;;;;;;;;;;;;;;;;5052459;28;19912;-80
2021/09/28 03:42:14;;;;;;;;;;;;;;;;;;5052891;28;19920;-80
2021/09/28 03:44:39;;;;;;;;;;;;;;;;;;5069160;28;19913;-80
2021/09/28 03:47:04;;;;;;;;;;;;;;;;;;5036082;28;20274;-80
2021/09/28 03:49:30;;;;;;;;;;;;;;;;;;5068168;28;19920;-80
2021/09/28 03:51:55;;;;;;;;;;;;;;;;;;5069351;28;19913;-80
2021/09/28 03:54:20;;;;;;;;;;;;;;;;;;5055909;28;19920;-80
2021/09/28 03:56:46;;;;;;;;;;;;;;;;;;5055515;28;20423;-80
2021/09/28 03:59:11;;;;;;;;;;;;;;;;;;5072176;28;19923;-80
2021/09/28 04:01:36;;;;;;;;;;;;;;;;;;5051933;28;20067;-80
2021/09/28 04:04:02;;;;;;;;;;;;;;;;;;5068709;28;20003;-80
2021/09/28 04:06:27;;;;;;;;;;;;;;;;;;5086061;28;20286;-81
2021/09/28 04:08:53;;;;;;;;;;;;;;;;;;5085746;28;19994;-81
2021/09/28 04:11:18;;;;;;;;;;;;;;;;;;5101959;28;19955;-80
2021/09/28 04:13:47;;;;;;;;;;;;;;;;;;5058672;28;19912;-80
2021/09/28 04:16:12;;;;;;;;;;;;;;;;;;5059444;28;20430;-80
2021/09/28 04:18:37;;;;;;;;;;;;;;;;;;5075173;28;19916;-80
2021/09/28 04:21:03;;;;;;;;;;;;;;;;;;5059239;28;20401;-80
2021/09/28 04:23:28;;;;;;;;;;;;;;;;;;5040993;28;19913;-80
2021/09/28 04:25:54;;;;;;;;;;;;;;;;;;5055198;28;20367;-80
2021/09/28 04:28:19;;;;;;;;;;;;;;;;;;5038431;28;19959;-80
2021/09/28 04:30:44;;;;;;;;;;;;;;;;;;5038653;28;19912;-80
2021/09/28 04:33:10;;;;;;;;;;;;;;;;;;5055275;28;20016;-80
2021/09/28 04:35:35;;;;;;;;;;;;;;;;;;5054888;28;19920;-80
2021/09/28 04:38:00;;;;;;;;;;;;;;;;;;5038097;28;19912;-80
2021/09/28 04:40:25;;;;;;;;;;;;;;;;;;5054940;28;19924;-80
2021/09/28 04:42:51;;;;;;;;;;;;;;;;;;5054924;28;19919;-80
2021/09/28 04:45:18;;;;;;;;;;;;;;;;;;5071558;28;19917;-80
2021/09/28 04:47:43;;;;;;;;;;;;;;;;;;5054860;28;20015;-80
2021/09/28 04:50:08;;;;;;;;;;;;;;;;;;5038117;28;19952;-80
2021/09/28 04:52:36;;;;;;;;;;;;;;;;;;5054962;28;19951;-80
2021/09/28 04:55:01;;;;;;;;;;;;;;;;;;5054917;28;19924;-80
2021/09/28 04:57:26;;;;;;;;;;;;;;;;;;5070909;28;19925;-80
2021/09/28 04:59:51;;;;;;;;;;;;;;;;;;5071440;28;19966;-81
2021/09/28 05:02:17;;;;;;;;;;;;;;;;;;5070925;28;19997;-81
2021/09/28 05:04:42;;;;;;;;;;;;;;;;;;5071119;28;20029;-81
2021/09/28 05:07:07;;;;;;;;;;;;;;;;;;5069413;28;19966;-81
2021/09/28 05:09:33;;;;;;;;;;;;;;;;;;5068192;28;20014;-80
2021/09/28 05:11:59;;;;;;;;;;;;;;;;;;5072570;28;19912;-81
2021/09/28 05:14:25;;;;;;;;;;;;;;;;;;5048023;28;19912;-81
2021/09/28 05:16:50;;;;;;;;;;;;;;;;;;5054707;28;19938;-80
2021/09/28 05:19:16;;;;;;;;;;;;;;;;;;5051461;28;19982;-81
2021/09/28 05:21:41;;;;;;;;;;;;;;;;;;5056350;28;19940;-81
2021/09/28 05:24:07;;;;;;;;;;;;;;;;;;5066005;28;19924;-81
2021/09/28 05:26:32;;;;;;;;;;;;;;;;;;5067075;28;19925;-80
2021/09/28 05:28:58;;;;;;;;;;;;;;;;;;5075693;28;20379;-81
2021/09/28 05:31:23;;;;;;;;;;;;;;;;;;5054412;28;19952;-81
2021/09/28 05:33:48;;;;;;;;;;;;;;;;;;5052160;28;19916;-81
2021/09/28 05:36:14;;;;;;;;;;;;;;;;;;5054208;28;19920;-81
2021/09/28 05:38:39;;;;;;;;;;;;;;;;;;5070731;28;19919;-82
2021/09/28 05:41:06;;;;;;;;;;;;;;;;;;5068804;28;19913;-80
2021/09/28 05:43:32;;;;;;;;;;;;;;;;;;5062259;28;19912;-81
2021/09/28 05:45:57;;;;;;;;;;;;;;;;;;5060682;28;19931;-81
2021/09/28 05:48:23;;;;;;;;;;;;;;;;;;5053763;28;19913;-81
2021/09/28 05:50:48;;;;;;;;;;;;;;;;;;5064052;28;19916;-81
2021/09/28 05:53:13;;;;;;;;;;;;;;;;;;5068238;28;19917;-80
2021/09/28 05:55:39;;;;;;;;;;;;;;;;;;5053424;28;19921;-80
2021/09/28 05:58:04;;;;;;;;;;;;;;;;;;5064690;28;20391;-80
2021/09/28 06:00:30;;;;;;;;;;;;;;;;;;5070743;28;20382;-81
2021/09/28 06:02:55;;;;;;;;;;;;;;;;;;5070736;28;19912;-81
2021/09/28 06:05:21;;;;;;;;;;;;;;;;;;5069951;28;19958;-82
2021/09/28 06:07:46;;;;;;;;;;;;;;;;;;5070067;28;19924;-82
2021/09/28 06:10:12;;;;;;;;;;;;;;;;;;5073766;28;19912;-81
2021/09/28 06:12:38;;;;;;;;;;;;;;;;;;5054913;28;19986;-82
2021/09/28 06:15:04;;;;;;;;;;;;;;;;;;5037936;28;19928;-81
2021/09/28 06:17:29;;;;;;;;;;;;;;;;;;5037449;28;19913;-83
2021/09/28 06:19:54;;;;;;;;;;;;;;;;;;5037782;28;19920;-82
2021/09/28 06:22:19;;;;;;;;;;;;;;;;;;5045477;28;19951;-83
2021/09/28 06:24:45;;;;;;;;;;;;;;;;;;5057089;28;19916;-82
2021/09/28 06:27:10;;;;;;;;;;;;;;;;;;5054995;28;19934;-83
2021/09/28 06:29:35;;;;;;;;;;;;;;;;;;5035005;28;19908;-83
2021/09/28 06:32:01;;;;;;;;;;;;;;;;;;5053805;28;19920;-83
2021/09/28 06:34:26;;;;;;;;;;;;;;;;;;5055070;28;20281;-83
2021/09/28 06:36:51;;;;;;;;;;;;;;;;;;5055985;28;19913;-83
2021/09/28 06:39:17;;;;;;;;;;;;;;;;;;5056720;28;20375;-83
2021/09/28 06:41:42;;;;;;;;;;;;;;;;;;5056071;28;20085;-83
2021/09/28 06:44:08;;;;;;;;;;;;;;;;;;5057852;28;19928;-83
2021/09/28 06:46:34;;;;;;;;;;;;;;;;;;5037188;28;19920;-84
2021/09/28 06:48:59;;;;;;;;;;;;;;;;;;5036704;28;19913;-83
2021/09/28 06:51:24;;;;;;;;;;;;;;;;;;5056770;28;20433;-83
2021/09/28 06:53:50;;;;;;;;;;;;;;;;;;5073659;28;19963;-81
2021/09/28 06:56:16;;;;;;;;;;;;;;;;;;5057254;28;19917;-82
2021/09/28 06:58:42;;;;;;;;;;;;;;;;;;5056847;28;19917;-81
2021/09/28 07:01:07;;;;;;;;;;;;;;;;;;5073257;28;20282;-81
2021/09/28 07:03:34;;;;;;;;;;;;;;;;;;5073372;28;19932;-82
2021/09/28 07:06:00;;;;;;;;;;;;;;;;;;5055886;28;19916;-81
2021/09/28 07:08:25;;;;;;;;;;;;;;;;;;5040629;28;19917;-81
2021/09/28 07:10:50;;;;;;;;;;;;;;;;;;5081972;28;19915;-82
2021/09/28 07:13:16;;;;;;;;;;;;;;;;;;5053154;28;19970;-82
2021/09/28 07:15:41;;;;;;;;;;;;;;;;;;5050385;28;20379;-81
2021/09/28 07:18:06;;;;;;;;;;;;;;;;;;5072985;28;19919;-82
2021/09/28 07:20:32;;;;;;;;;;;;;;;;;;5072875;28;20379;-81
2021/09/28 07:22:57;;;;;;;;;;;;;;;;;;5071751;28;19928;-81
2021/09/28 07:25:23;;;;;;;;;;;;;;;;;;5070515;28;19928;-81
2021/09/28 07:27:48;;;;;;;;;;;;;;;;;;5051993;28;19933;-81
2021/09/28 07:30:14;;;;;;;;;;;;;;;;;;5061899;28;20281;-81
2021/09/28 07:32:39;;;;;;;;;;;;;;;;;;5044704;28;19918;-81
2021/09/28 07:35:05;;;;;;;;;;;;;;;;;;5055401;28;19916;-82
2021/09/28 07:37:30;;;;;;;;;;;;;;;;;;5038707;28;19918;-81
2021/09/28 07:39:56;;;;;;;;;;;;;;;;;;5072304;28;19916;-82
2021/09/28 07:42:22;;;;;;;;;;;;;;;;;;5039512;28;19918;-81
2021/09/28 07:44:47;;;;;;;;;;;;;;;;;;5039412;28;20366;-81
2021/09/28 07:47:13;;;;;;;;;;;;;;;;;;5072837;28;19944;-81
2021/09/28 07:49:39;;;;;;;;;;;;;;;;;;5055658;28;20019;-81
2021/09/28 07:52:04;;;;;;;;;;;;;;;;;;5068740;28;19920;-81
2021/09/28 07:54:29;;;;;;;;;;;;;;;;;;5067530;28;20289;-82
2021/09/28 07:56:55;;;;;;;;;;;;;;;;;;5035668;28;20011;-83
2021/09/28 07:59:20;;;;;;;;;;;;;;;;;;5052495;28;19920;-84
2021/09/28 08:01:45;;;;;;;;;;;;;;;;;;5035924;28;19952;-84
2021/09/28 08:04:14;;;;;;;;;;;;;;;;;;5052188;28;19913;-83
2021/09/28 08:06:40;;;;;;;;;;;;;;;;;;5052230;28;19912;-84
2021/09/28 08:09:06;;;;;;;;;;;;;;;;;;5035710;28;19913;-85
2021/09/28 08:11:31;;;;;;;;;;;;;;;;;;5055202;28;19913;-86
2021/09/28 08:13:57;;;;;;;;;;;;;;;;;;5072340;28;19923;-85
2021/09/28 08:16:22;;;;;;;;;;;;;;;;;;5072388;28;19950;-84
2021/09/28 08:18:48;;;;;;;;;;;;;;;;;;5072023;28;19916;-84
2021/09/28 08:21:14;;;;;;;;;;;;;;;;;;5060281;28;19927;-84
2021/09/28 08:23:39;;;;;;;;;;;;;;;;;;5042699;28;19921;-83
2021/09/28 08:31:33;;;;;;;;;;;;;;;;;;5072177;28;19917;-86
2021/09/28 08:33:59;;;;;;;;;;;;;;;;;;5057888;28;19916;-86
2021/09/28 08:36:25;;;;;;;;;;;;;;;;;;5049144;28;20256;-85
2021/09/28 08:38:50;;;;;;;;;;;;;;;;;;5068088;28;19923;-85
2021/09/28 08:41:16;;;;;;;;;;;;;;;;;;5071417;28;19913;-86
2021/09/28 08:43:43;;;;;;;;;;;;;;;;;;5072191;28;20325;-85
2021/09/28 08:46:08;;;;;;;;;;;;;;;;;;5063714;28;20011;-86
2021/09/28 08:48:34;;;;;;;;;;;;;;;;;;5053256;28;20003;-86
2021/09/28 08:51:02;;;;;;;;;;;;;;;;;;5054219;28;20015;-86
2021/09/28 08:53:28;;;;;;;;;;;;;;;;;;5071980;28;20373;-87
2021/09/28 08:55:53;;;;;;;;;;;;;;;;;;5058227;28;19917;-86
2021/09/28 08:58:22;;;;;;;;;;;;;;;;;;5055257;28;19962;-88
2021/09/28 09:00:50;;;;;;;;;;;;;;;;;;5055792;28;19939;-89
2021/09/28 09:03:28;;;;;;;;;;;;;;;;;;5055441;28;19920;-89
2021/09/28 09:05:56;;;;;;;;;;;;;;;;;;5055175;28;19920;-89
2021/09/28 09:08:35;;;;;;;;;;;;;;;;;;5035790;28;19963;-88
2021/09/28 09:11:01;;;;;;;;;;;;;;;;;;5052464;28;19921;-88
2021/09/28 09:13:47;;;;;;;;;;;;;;;;;;5052387;28;20287;-88
2021/09/28 09:16:14;;;;;;;;;;;;;;;;;;5059149;28;20500;-86
2021/09/28 09:18:44;;;;;;;;;;;;;;;;;;5037497;28;19913;-86
2021/09/28 09:21:10;;;;;;;;;;;;;;;;;;5054513;28;20339;-86
2021/09/28 09:23:36;;;;;;;;;;;;;;;;;;5071371;28;19947;-86
2021/09/28 09:26:02;;;;;;;;;;;;;;;;;;5071663;28;20007;-87
2021/09/28 09:28:33;;;;;;;;;;;;;;;;;;5071163;28;20015;-87
2021/09/28 09:31:24;;;;;;;;;;;;;;;;;;5072230;28;20042;-85
2021/09/28 09:33:50;;;;;;;;;;;;;;;;;;5058279;28;19923;-87
2021/09/28 09:36:17;;;;;;;;;;;;;;;;;;5035018;28;19919;-86
2021/09/28 09:38:46;;;;;;;;;;;;;;;;;;5051971;28;19967;-86
2021/09/28 09:41:13;;;;;;;;;;;;;;;;;;5071215;28;19920;-86
2021/09/28 09:43:39;;;;;;;;;;;;;;;;;;5071269;28;19917;-85
2021/09/28 09:46:09;;;;;;;;;;;;;;;;;;5071655;28;20007;-86
2021/09/28 09:48:34;;;;;;;;;;;;;;;;;;5073545;28;19912;-85
2021/09/28 09:51:07;;;;;;;;;;;;;;;;;;5059248;28;19938;-86
2021/09/28 09:53:34;;;;;;;;;;;;;;;;;;5058484;28;19913;-88
2021/09/28 09:56:02;;;;;;;;;;;;;;;;;;5061435;28;19962;-87
2021/09/28 09:58:30;;;;;;;;;;;;;;;;;;5075079;28;20006;-88
2021/09/28 10:00:58;;;;;;;;;;;;;;;;;;5055136;28;19913;-88
2021/09/28 10:03:23;;;;;;;;;;;;;;;;;;5039153;28;20038;-88
2021/09/28 10:05:51;;;;;;;;;;;;;;;;;;5041976;28;19946;-87
2021/09/28 10:08:18;;;;;;;;;;;;;;;;;;5072256;28;20297;-88
2021/09/28 10:10:43;;;;;;;;;;;;;;;;;;5058543;28;19916;-86
2021/09/28 10:13:30;;;;;;;;;;;;;;;;;;5058520;28;19920;-87
2021/09/28 10:16:15;;;;;;;;;;;;;;;;;;5055625;28;19913;-89
2021/09/28 10:18:40;;;;;;;;;;;;;;;;;;5075302;28;19912;-88
2021/09/28 10:21:24;;;;;;;;;;;;;;;;;;5057477;28;20354;-89
2021/09/28 10:24:11;;;;;;;;;;;;;;;;;;5073644;28;19965;-87
2021/09/28 10:26:37;;;;;;;;;;;;;;;;;;5034634;28;19949;-88
2021/09/28 10:29:23;;;;;;;;;;;;;;;;;;5057192;28;20062;-88
2021/09/28 10:31:48;;;;;;;;;;;;;;;;;;5054827;28;19920;-85
2021/09/28 10:34:16;;;;;;;;;;;;;;;;;;5037992;28;19935;-84
2021/09/28 10:36:53;;;;;;;;;;;;;;;;;;5039010;28;19923;-82
2021/09/28 10:39:37;;;;;;;;;;;;;;;;;;5054123;28;19916;-82
2021/09/28 10:42:03;;;;;;;;;;;;;;;;;;5054042;28;19912;-81
2021/09/28 10:44:37;;;;;;;;;;;;;;;;;;5053810;28;20330;-81
2021/09/28 10:47:04;;;;;;;;;;;;;;;;;;5067469;28;20401;-81
2021/09/28 10:49:30;;;;;;;;;;;;;;;;;;5076278;28;19920;-81
2021/09/28 10:52:14;;;;;;;;;;;;;;;;;;5036280;28;20050;-81
2021/09/28 10:54:58;;;;;;;;;;;;;;;;;;5060136;28;19913;-81
2021/09/28 10:57:43;;;;;;;;;;;;;;;;;;5086979;28;19929;-80
2021/09/28 11:00:09;;;;;;;;;;;;;;;;;;5053390;28;19932;-80
2021/09/28 11:02:55;;;;;;;;;;;;;;;;;;5042158;28;19916;-81
2021/09/28 11:05:36;;;;;;;;;;;;;;;;;;5055359;28;20011;-80
2021/09/28 11:08:02;;;;;;;;;;;;;;;;;;5073623;28;19924;-81
2021/09/28 11:10:28;;;;;;;;;;;;;;;;;;5067340;28;19917;-81
2021/09/28 11:12:53;;;;;;;;;;;;;;;;;;5053204;28;19967;-80
2021/09/28 11:15:22;;;;;;;;;;;;;;;;;;5054889;28;20037;-81
2021/09/28 11:17:48;;;;;;;;;;;;;;;;;;5073002;28;19958;-80
2021/09/28 11:20:20;;;;;;;;;;;;;;;;;;5076464;28;20021;-80
2021/09/28 11:22:55;;;;;;;;;;;;;;;;;;5076782;28;20327;-80
2021/09/28 11:25:20;;;;;;;;;;;;;;;;;;5076538;28;19924;-80
2021/09/28 11:28:06;;;;;;;;;;;;;;;;;;5074101;28;20269;-80
2021/09/28 11:30:34;;;;;;;;;;;;;;;;;;5080297;28;19912;-80
2021/09/28 11:33:08;;;;;;;;;;;;;;;;;;5046141;28;19916;-80
2021/09/28 11:35:34;;;;;;;;;;;;;;;;;;5035150;28;19920;-80
2021/09/28 11:38:01;;;;;;;;;;;;;;;;;;5039267;28;19924;-80
2021/09/28 11:40:30;;;;;;;;;;;;;;;;;;5056798;28;19923;-80
2021/09/28 11:42:55;;;;;;;;;;;;;;;;;;5069113;28;19920;-80
2021/09/28 11:45:28;;;;;;;;;;;;;;;;;;5077050;28;19912;-80
2021/09/28 11:47:53;;;;;;;;;;;;;;;;;;5072778;28;19916;-80
2021/09/28 11:50:22;;;;;;;;;;;;;;;;;;5053089;28;19969;-80
2021/09/28 11:52:47;;;;;;;;;;;;;;;;;;5055221;28;20378;-80
2021/09/28 11:55:19;;;;;;;;;;;;;;;;;;5062708;28;19932;-80
2021/09/28 11:57:44;;;;;;;;;;;;;;;;;;5057888;28;19921;-80
2021/09/28 12:00:10;;;;;;;;;;;;;;;;;;5055964;28;19923;-80
2021/09/28 12:02:36;;;;;;;;;;;;;;;;;;5066684;28;19954;-80
2021/09/28 12:10:00;;;;;;;;;;;;;;;;;;5069877;28;19912;-80
2021/09/28 12:12:26;;;;;;;;;;;;;;;;;;5072172;28;19912;-81
2021/09/28 12:14:51;;;;;;;;;;;;;;;;;;5071872;28;19913;-80
2021/09/28 12:17:20;;;;;;;;;;;;;;;;;;5085035;28;19916;-80
2021/09/28 12:19:49;;;;;;;;;;;;;;;;;;5087621;28;19917;-80
2021/09/28 12:22:28;;;;;;;;;;;;;;;;;;5071719;28;19913;-80
2021/09/28 12:24:54;;;;;;;;;;;;;;;;;;5070327;28;20432;-81
2021/09/28 12:27:19;;;;;;;;;;;;;;;;;;5055275;28;19920;-80
2021/09/28 12:29:45;;;;;;;;;;;;;;;;;;5071570;28;19913;-80
2021/09/28 12:32:37;;;;;;;;;;;;;;;;;;5088853;28;19908;-80
2021/09/28 12:35:06;;;;;;;;;;;;;;;;;;5050305;28;19913;-80
2021/09/28 12:37:34;;;;;;;;;;;;;;;;;;5058899;28;20371;-80
2021/09/28 12:40:07;;;;;;;;;;;;;;;;;;5080783;28;19923;-80
2021/09/28 12:42:33;;;;;;;;;;;;;;;;;;5054841;28;19974;-80
2021/09/28 12:45:03;;;;;;;;;;;;;;;;;;5071152;28;19953;-81
2021/09/28 12:47:29;;;;;;;;;;;;;;;;;;5071492;28;19916;-80
2021/09/28 12:49:56;;;;;;;;;;;;;;;;;;5071665;28;19912;-81
2021/09/28 12:52:21;;;;;;;;;;;;;;;;;;5058551;28;19920;-80
2021/09/28 12:54:46;;;;;;;;;;;;;;;;;;5058503;28;19973;-80
2021/09/28 12:57:14;;;;;;;;;;;;;;;;;;5053413;28;19925;-80
2021/09/28 12:59:40;;;;;;;;;;;;;;;;;;5035311;28;20501;-80
2021/09/28 13:02:05;;;;;;;;;;;;;;;;;;5078851;28;19999;-80
2021/09/28 13:04:31;;;;;;;;;;;;;;;;;;5061514;28;19923;-81
2021/09/28 13:06:58;;;;;;;;;;;;;;;;;;5063367;28;19921;-80
2021/09/28 13:09:24;;;;;;;;;;;;;;;;;;5080761;28;20339;-80
2021/09/28 13:11:49;;;;;;;;;;;;;;;;;;5028008;28;19920;-80
2021/09/28 13:14:14;;;;;;;;;;;;;;;;;;5062786;28;20534;-80
2021/09/28 13:16:40;;;;;;;;;;;;;;;;;;5051089;28;19913;-80
2021/09/28 13:19:05;;;;;;;;;;;;;;;;;;5035087;28;19951;-80
2021/09/28 13:21:30;;;;;;;;;;;;;;;;;;5053970;28;20374;-81
2021/09/28 13:23:56;;;;;;;;;;;;;;;;;;5070693;28;20417;-80
2021/09/28 13:26:21;;;;;;;;;;;;;;;;;;5070627;28;20370;-81
2021/09/28 13:28:47;;;;;;;;;;;;;;;;;;5070764;28;20015;-81
2021/09/28 13:31:12;;;;;;;;;;;;;;;;;;5070999;28;20010;-80
2021/09/28 13:33:37;;;;;;;;;;;;;;;;;;5070416;28;20015;-80
2021/09/28 13:36:03;;;;;;;;;;;;;;;;;;5055908;28;19932;-80
2021/09/28 13:38:28;;;;;;;;;;;;;;;;;;5051132;28;19967;-80
2021/09/28 13:40:53;;;;;;;;;;;;;;;;;;5070796;28;19947;-80
2021/09/28 13:43:19;;;;;;;;;;;;;;;;;;5053132;28;19916;-81
2021/09/28 13:45:44;;;;;;;;;;;;;;;;;;5070359;28;19912;-80
2021/09/28 13:48:09;;;;;;;;;;;;;;;;;;5070480;28;19920;-81
2021/09/28 13:50:35;;;;;;;;;;;;;;;;;;5070888;28;20359;-80
2021/09/28 13:53:00;;;;;;;;;;;;;;;;;;5055834;28;19917;-80
2021/09/28 13:55:25;;;;;;;;;;;;;;;;;;5052172;28;19917;-80
2021/09/28 13:57:51;;;;;;;;;;;;;;;;;;5070516;28;19916;-81
2021/09/28 14:00:16;;;;;;;;;;;;;;;;;;5069547;28;19923;-80
2021/09/28 14:02:42;;;;;;;;;;;;;;;;;;5076681;28;19917;-80
2021/09/28 14:05:07;;;;;;;;;;;;;;;;;;5070409;28;20382;-80
2021/09/28 14:07:32;;;;;;;;;;;;;;;;;;5064381;28;19923;-80
2021/09/28 14:09:58;;;;;;;;;;;;;;;;;;5063677;28;19931;-80
2021/09/28 14:12:23;;;;;;;;;;;;;;;;;;5051444;28;19921;-80
2021/09/28 14:14:48;;;;;;;;;;;;;;;;;;5019719;28;19920;-81
2021/09/28 14:17:14;;;;;;;;;;;;;;;;;;5065594;28;20275;-81
2021/09/28 14:19:39;;;;;;;;;;;;;;;;;;5059572;28;19917;-80
2021/09/28 14:22:04;;;;;;;;;;;;;;;;;;5069428;28;19924;-80
2021/09/28 14:24:30;;;;;;;;;;;;;;;;;;5070030;28;19916;-80
2021/09/28 14:26:55;;;;;;;;;;;;;;;;;;5050612;28;19916;-80
2021/09/28 14:29:20;;;;;;;;;;;;;;;;;;5064218;28;20032;-80
2021/09/28 14:31:46;;;;;;;;;;;;;;;;;;5063575;28;20394;-81
2021/09/28 14:34:12;;;;;;;;;;;;;;;;;;5068255;28;20375;-80
2021/09/28 14:36:38;;;;;;;;;;;;;;;;;;5053661;28;19916;-80
2021/09/28 14:39:03;;;;;;;;;;;;;;;;;;5036913;28;19982;-80
2021/09/28 14:41:28;;;;;;;;;;;;;;;;;;5047909;28;20003;-80
2021/09/28 14:43:54;;;;;;;;;;;;;;;;;;5073764;28;20003;-80
2021/09/28 14:46:23;;;;;;;;;;;;;;;;;;5072860;28;19916;-81
2021/09/28 14:48:48;;;;;;;;;;;;;;;;;;5052565;28;19920;-81
2021/09/28 14:51:14;;;;;;;;;;;;;;;;;;5051213;28;20259;-80
2021/09/28 14:53:39;;;;;;;;;;;;;;;;;;5069070;28;19913;-80
2021/09/28 14:56:05;;;;;;;;;;;;;;;;;;5050796;28;20378;-81
2021/09/28 14:58:31;;;;;;;;;;;;;;;;;;5055039;28;19921;-80
2021/09/28 15:00:56;;;;;;;;;;;;;;;;;;5071734;28;19917;-79
2021/09/28 15:03:22;;;;;;;;;;;;;;;;;;5072943;28;20358;-81
2021/09/28 15:05:47;;;;;;;;;;;;;;;;;;5073046;28;19917;-80
2021/09/28 15:08:12;;;;;;;;;;;;;;;;;;5073179;28;19913;-83
2021/09/28 15:10:38;;;;;;;;;;;;;;;;;;5068689;28;19923;-82
2021/09/28 15:13:03;;;;;;;;;;;;;;;;;;5060279;28;19969;-83
2021/09/28 15:15:28;;;;;;;;;;;;;;;;;;5076346;28;20037;-81
2021/09/28 15:17:54;;;;;;;;;;;;;;;;;;5076887;28;19918;-81
2021/09/28 15:20:19;;;;;;;;;;;;;;;;;;5053562;28;19917;-81
2021/09/28 15:22:45;;;;;;;;;;;;;;;;;;5036762;28;20008;-81
2021/09/28 15:25:10;;;;;;;;;;;;;;;;;;5072969;28;20324;-81
2021/09/28 15:27:36;;;;;;;;;;;;;;;;;;5073264;28;19955;-81
2021/09/28 15:30:02;;;;;;;;;;;;;;;;;;5073095;28;19920;-81
2021/09/28 15:32:28;;;;;;;;;;;;;;;;;;5073293;28;19917;-81
2021/09/28 15:34:53;;;;;;;;;;;;;;;;;;5060091;28;20015;-81
2021/09/28 15:37:18;;;;;;;;;;;;;;;;;;5052756;28;20429;-81
2021/09/28 15:39:44;;;;;;;;;;;;;;;;;;5052780;28;19920;-81
2021/09/28 15:42:09;;;;;;;;;;;;;;;;;;5053395;28;19913;-81
2021/09/28 15:44:34;;;;;;;;;;;;;;;;;;5051458;28;19917;-81
2021/09/28 15:47:00;;;;;;;;;;;;;;;;;;5052980;28;19920;-81
2021/09/28 15:49:25;;;;;;;;;;;;;;;;;;5052497;28;19919;-81
2021/09/28 15:51:50;;;;;;;;;;;;;;;;;;5053036;28;19913;-81
2021/09/28 15:54:18;;;;;;;;;;;;;;;;;;5055677;28;19919;-80
2021/09/28 15:56:43;;;;;;;;;;;;;;;;;;5072714;28;19916;-80
2021/09/28 15:59:08;;;;;;;;;;;;;;;;;;5056761;28;19947;-81
2021/09/28 16:01:34;;;;;;;;;;;;;;;;;;5054464;28;19920;-80
2021/09/28 16:03:59;;;;;;;;;;;;;;;;;;5070813;28;19916;-81
2021/09/28 16:06:25;;;;;;;;;;;;;;;;;;5070123;28;19916;-81
2021/09/28 16:09:06;;;;;;;;;;;;;;;;;;5070748;28;20847;-80
2021/09/28 16:11:31;;;;;;;;;;;;;;;;;;5042739;28;19924;-81
2021/09/28 16:13:57;;;;;;;;;;;;;;;;;;5053731;28;19921;-81
2021/09/28 16:16:22;;;;;;;;;;;;;;;;;;5037889;28;19928;-80
2021/09/28 16:18:47;;;;;;;;;;;;;;;;;;5069755;28;19916;-81
2021/09/28 16:21:13;;;;;;;;;;;;;;;;;;5072004;28;20000;-81
2021/09/28 16:23:39;;;;;;;;;;;;;;;;;;5054947;28;19916;-80
2021/09/28 16:26:04;;;;;;;;;;;;;;;;;;5055039;28;20286;-80
2021/09/28 16:28:30;;;;;;;;;;;;;;;;;;5038176;28;19938;-81
2021/09/28 16:30:55;;;;;;;;;;;;;;;;;;5036868;28;19920;-81
2021/09/28 16:33:25;;;;;;;;;;;;;;;;;;5045585;28;20411;-81
2021/09/28 16:35:54;;;;;;;;;;;;;;;;;;5051929;28;19913;-81
2021/09/28 16:38:20;;;;;;;;;;;;;;;;;;5052617;28;20007;-81
2021/09/28 16:40:46;;;;;;;;;;;;;;;;;;5048507;28;19952;-81
2021/09/28 16:43:11;;;;;;;;;;;;;;;;;;5055129;28;19916;-81
2021/09/28 16:45:37;;;;;;;;;;;;;;;;;;5054685;28;19923;-80
2021/09/28 16:48:02;;;;;;;;;;;;;;;;;;5046094;28;19970;-81
2021/09/28 16:50:28;;;;;;;;;;;;;;;;;;5051704;28;19917;-81
2021/09/28 16:52:53;;;;;;;;;;;;;;;;;;5051629;28;19917;-81